Time;durP1;ratioP1;P1;durP2;ratioP2;P2;SDS_P1;SDS_P2;PMS_P1;PMS_P2;Temp;Humidity;BMP_temperature;BMP_pressure;BME280_temperature;BME280_humidity;BME280_pressure;Samples;Min_cycle;Max_cycle;Signal;HPM_P1;HPM_P2
2020/12/28 00:00:33;;;;;;;2.97;2.67;;;;;;;;;;5093894;28;20597;-60
2020/12/28 00:03:00;;;;;;;2.70;2.50;;;;;;;;;;5094023;28;20201;-60
2020/12/28 00:05:27;;;;;;;3.20;2.67;;;;;;;;;;5093667;28;20208;-60
2020/12/28 00:07:54;;;;;;;3.00;2.75;;;;;;;;;;5094480;28;20269;-60
2020/12/28 00:10:22;;;;;;;2.90;2.40;;;;;;;;;;5094029;28;20200;-59
2020/12/28 00:12:49;;;;;;;3.20;2.40;;;;;;;;;;5094187;28;20641;-60
2020/12/28 00:15:16;;;;;;;2.85;2.58;;;;;;;;;;5094341;28;20204;-60
2020/12/28 00:17:44;;;;;;;3.45;2.75;;;;;;;;;;5093958;28;20212;-60
2020/12/28 00:20:11;;;;;;;2.50;2.30;;;;;;;;;;5093914;28;20204;-60
2020/12/28 00:22:38;;;;;;;2.30;2.13;;;;;;;;;;5095094;28;20245;-59
2020/12/28 00:25:05;;;;;;;2.72;2.30;;;;;;;;;;5098244;28;20253;-59
2020/12/28 00:27:32;;;;;;;3.38;2.75;;;;;;;;;;5098559;28;20285;-61
2020/12/28 00:29:59;;;;;;;3.13;2.83;;;;;;;;;;5097794;28;20675;-60
2020/12/28 00:32:26;;;;;;;3.00;2.25;;;;;;;;;;5098167;28;20296;-59
2020/12/28 00:34:53;;;;;;;2.47;2.28;;;;;;;;;;5098019;28;20199;-59
2020/12/28 00:37:19;;;;;;;2.28;2.08;;;;;;;;;;5098671;28;20208;-60
2020/12/28 00:39:46;;;;;;;1.90;1.80;;;;;;;;;;5098709;28;20620;-59
2020/12/28 00:42:13;;;;;;;2.58;2.22;;;;;;;;;;5106091;28;20220;-60
2020/12/28 00:44:41;;;;;;;2.30;2.13;;;;;;;;;;5106541;28;20204;-60
2020/12/28 00:47:09;;;;;;;1.95;1.85;;;;;;;;;;5112271;28;20212;-60
2020/12/28 00:49:36;;;;;;;2.10;1.90;;;;;;;;;;5109957;28;20224;-59
2020/12/28 00:52:03;;;;;;;2.25;1.90;;;;;;;;;;5110412;28;20251;-59
2020/12/28 00:54:30;;;;;;;2.40;1.95;;;;;;;;;;5114685;28;20197;-60
2020/12/28 00:56:56;;;;;;;2.67;1.83;;;;;;;;;;5113988;28;20200;-60
2020/12/28 00:59:23;;;;;;;2.05;1.85;;;;;;;;;;5113912;28;20219;-60
2020/12/28 01:01:55;;;;;;;2.13;1.92;;;;;;;;;;5108000;28;20227;-59
2020/12/28 01:04:21;;;;;;;2.35;1.70;;;;;;;;;;5105820;28;20196;-60
2020/12/28 01:06:48;;;;;;;1.90;1.63;;;;;;;;;;5103456;28;20254;-61
2020/12/28 01:09:15;;;;;;;1.77;1.67;;;;;;;;;;5103736;28;20223;-60
2020/12/28 01:11:42;;;;;;;1.85;1.52;;;;;;;;;;5104078;28;20273;-60
2020/12/28 01:14:09;;;;;;;1.90;1.80;;;;;;;;;;5104402;28;20228;-60
2020/12/28 01:16:36;;;;;;;2.50;1.40;;;;;;;;;;5103610;28;20200;-60
2020/12/28 01:19:04;;;;;;;1.75;1.52;;;;;;;;;;5101876;28;20200;-59
2020/12/28 01:21:30;;;;;;;1.38;1.27;;;;;;;;;;5101351;28;20216;-60
2020/12/28 01:23:57;;;;;;;1.50;1.40;;;;;;;;;;5100600;28;20817;-60
2020/12/28 01:26:24;;;;;;;1.40;1.30;;;;;;;;;;5100322;28;20253;-60
2020/12/28 01:28:51;;;;;;;1.70;1.60;;;;;;;;;;5098448;28;20212;-60
2020/12/28 01:31:18;;;;;;;1.88;1.77;;;;;;;;;;5098052;28;20242;-60
2020/12/28 01:33:45;;;;;;;1.70;1.60;;;;;;;;;;5097328;28;20208;-60
2020/12/28 01:36:12;;;;;;;1.58;1.48;;;;;;;;;;5098164;28;20208;-60
2020/12/28 01:38:39;;;;;;;1.70;1.60;;;;;;;;;;5098933;28;20205;-60
2020/12/28 01:41:06;;;;;;;1.77;1.65;;;;;;;;;;5098067;28;20224;-60
2020/12/28 01:43:33;;;;;;;2.08;1.58;;;;;;;;;;5097490;28;20672;-60
2020/12/28 01:46:00;;;;;;;1.83;1.73;;;;;;;;;;5097333;28;20207;-60
2020/12/28 01:48:27;;;;;;;1.77;1.67;;;;;;;;;;5096916;28;20267;-60
2020/12/28 01:50:55;;;;;;;1.75;1.45;;;;;;;;;;5096706;28;20720;-60
2020/12/28 01:53:22;;;;;;;1.80;1.70;;;;;;;;;;5096795;28;20200;-60
2020/12/28 01:55:50;;;;;;;1.63;1.48;;;;;;;;;;5101462;28;20204;-59
2020/12/28 01:58:17;;;;;;;2.05;1.85;;;;;;;;;;5101198;28;20197;-59
2020/12/28 02:00:44;;;;;;;2.03;1.83;;;;;;;;;;5098779;28;20204;-60
2020/12/28 02:03:11;;;;;;;1.50;1.40;;;;;;;;;;5097534;28;20257;-61
2020/12/28 02:05:38;;;;;;;1.60;1.50;;;;;;;;;;5096584;28;20208;-60
2020/12/28 02:08:05;;;;;;;1.67;1.42;;;;;;;;;;5096185;28;20570;-60
2020/12/28 02:10:32;;;;;;;1.58;1.48;;;;;;;;;;5095740;28;20201;-60
2020/12/28 02:12:59;;;;;;;1.80;1.42;;;;;;;;;;5095966;28;20200;-59
2020/12/28 02:15:26;;;;;;;1.63;1.52;;;;;;;;;;5096310;28;20196;-59
2020/12/28 02:17:53;;;;;;;1.50;1.20;;;;;;;;;;5096602;28;20197;-60
2020/12/28 02:20:19;;;;;;;3.45;2.20;;;;;;;;;;5096475;28;20208;-60
2020/12/28 02:22:47;;;;;;;1.63;1.40;;;;;;;;;;5096731;28;20224;-60
2020/12/28 02:25:14;;;;;;;1.30;1.20;;;;;;;;;;5096767;28;20549;-60
2020/12/28 02:27:40;;;;;;;1.50;1.40;;;;;;;;;;5095750;28;20213;-59
2020/12/28 02:30:07;;;;;;;1.92;1.50;;;;;;;;;;5096333;28;20197;-60
2020/12/28 02:32:34;;;;;;;2.13;1.92;;;;;;;;;;5096433;28;20223;-60
2020/12/28 02:35:01;;;;;;;1.50;1.40;;;;;;;;;;5096211;28;20578;-59
2020/12/28 02:37:27;;;;;;;2.10;1.75;;;;;;;;;;5096591;28;20212;-60
2020/12/28 02:39:55;;;;;;;2.38;1.70;;;;;;;;;;5100288;28;20225;-59
2020/12/28 02:42:22;;;;;;;1.60;1.50;;;;;;;;;;5099694;28;20277;-60
2020/12/28 02:44:48;;;;;;;1.70;1.60;;;;;;;;;;5098245;28;20196;-60
2020/12/28 02:47:15;;;;;;;2.17;1.70;;;;;;;;;;5097364;28;20629;-60
2020/12/28 02:49:42;;;;;;;2.05;1.40;;;;;;;;;;5097402;28;20201;-60
2020/12/28 02:52:09;;;;;;;1.85;1.75;;;;;;;;;;5097596;28;20593;-60
2020/12/28 02:54:35;;;;;;;2.10;1.80;;;;;;;;;;5095109;28;20612;-60
2020/12/28 02:57:03;;;;;;;1.77;1.67;;;;;;;;;;5095032;28;20212;-60
2020/12/28 02:59:30;;;;;;;2.08;1.60;;;;;;;;;;5096028;28;20204;-61
2020/12/28 03:01:57;;;;;;;2.00;1.75;;;;;;;;;;5096626;28;20227;-59
2020/12/28 03:04:23;;;;;;;1.73;1.60;;;;;;;;;;5095710;28;20208;-60
2020/12/28 03:06:50;;;;;;;2.60;2.40;;;;;;;;;;5095415;28;20672;-59
2020/12/28 03:09:17;;;;;;;1.60;1.50;;;;;;;;;;5095982;28;20224;-60
2020/12/28 03:11:45;;;;;;;1.80;1.70;;;;;;;;;;5095860;28;20220;-60
2020/12/28 03:14:12;;;;;;;1.50;1.40;;;;;;;;;;5096307;28;20204;-59
2020/12/28 03:16:39;;;;;;;1.63;1.50;;;;;;;;;;5095988;28;20262;-60
2020/12/28 03:19:06;;;;;;;1.00;0.90;;;;;;;;;;5095964;28;20664;-60
2020/12/28 03:21:32;;;;;;;1.38;1.20;;;;;;;;;;5095339;28;20224;-60
2020/12/28 03:23:59;;;;;;;1.33;1.00;;;;;;;;;;5095421;28;20208;-60
2020/12/28 03:26:26;;;;;;;1.13;1.02;;;;;;;;;;5096219;28;20257;-60
2020/12/28 03:28:53;;;;;;;1.33;1.15;;;;;;;;;;5095851;28;20269;-60
2020/12/28 03:31:20;;;;;;;1.10;1.00;;;;;;;;;;5095917;28;20231;-60
2020/12/28 03:33:47;;;;;;;1.90;0.90;;;;;;;;;;5096614;28;20211;-60
2020/12/28 03:36:14;;;;;;;0.80;0.75;;;;;;;;;;5095539;28;20200;-60
2020/12/28 03:38:41;;;;;;;1.20;1.05;;;;;;;;;;5095768;28;20205;-60
2020/12/28 03:41:07;;;;;;;1.00;0.90;;;;;;;;;;5095673;28;20231;-60
2020/12/28 03:43:34;;;;;;;0.80;0.80;;;;;;;;;;5096018;28;20200;-60
2020/12/28 03:46:01;;;;;;;0.80;0.80;;;;;;;;;;5095967;28;20204;-60
2020/12/28 03:48:28;;;;;;;0.90;0.90;;;;;;;;;;5095474;28;20718;-59
2020/12/28 03:50:55;;;;;;;0.75;0.75;;;;;;;;;;5095036;28;20270;-60
2020/12/28 03:53:22;;;;;;;1.10;1.00;;;;;;;;;;5094734;28;20617;-59
2020/12/28 03:55:49;;;;;;;1.10;1.00;;;;;;;;;;5094359;28;20258;-60
2020/12/28 03:58:16;;;;;;;1.15;1.05;;;;;;;;;;5094230;28;20200;-59
2020/12/28 04:00:43;;;;;;;1.10;1.00;;;;;;;;;;5094624;28;20218;-61
2020/12/28 04:03:10;;;;;;;1.10;1.00;;;;;;;;;;5094553;28;20254;-59
2020/12/28 04:07:32;;;;;;;0.83;0.83;;;;;;;;;;5125131;27;890383;-60
2020/12/28 04:09:58;;;;;;;1.20;1.10;;;;;;;;;;5132917;28;20655;-61
2020/12/28 04:12:25;;;;;;;0.98;0.88;;;;;;;;;;5115752;28;20238;-61
2020/12/28 04:14:52;;;;;;;1.02;0.93;;;;;;;;;;5112406;28;20195;-60
2020/12/28 04:17:18;;;;;;;1.25;1.17;;;;;;;;;;5113397;28;20249;-60
2020/12/28 04:19:45;;;;;;;0.90;0.90;;;;;;;;;;5113828;28;20203;-60
2020/12/28 04:22:12;;;;;;;1.30;1.20;;;;;;;;;;5112092;28;20215;-61
2020/12/28 04:24:40;;;;;;;1.20;1.10;;;;;;;;;;5112699;28;20196;-60
2020/12/28 04:27:06;;;;;;;1.20;1.10;;;;;;;;;;5113264;28;20239;-60
2020/12/28 04:29:33;;;;;;;1.00;0.90;;;;;;;;;;5115653;28;20208;-60
2020/12/28 04:32:00;;;;;;;1.05;0.95;;;;;;;;;;5113142;28;20722;-60
2020/12/28 04:34:26;;;;;;;2.75;1.20;;;;;;;;;;5112995;28;20660;-60
2020/12/28 04:36:53;;;;;;;1.17;1.08;;;;;;;;;;5112340;28;20207;-60
2020/12/28 04:39:20;;;;;;;1.08;1.08;;;;;;;;;;5112727;28;20200;-61
2020/12/28 04:41:48;;;;;;;1.27;1.17;;;;;;;;;;5112323;28;20220;-60
2020/12/28 04:44:15;;;;;;;1.17;1.08;;;;;;;;;;5111940;28;20211;-60
2020/12/28 04:46:42;;;;;;;1.25;1.15;;;;;;;;;;5112325;28;20215;-60
2020/12/28 04:49:09;;;;;;;1.27;1.17;;;;;;;;;;5111908;28;20623;-60
2020/12/28 04:51:35;;;;;;;1.10;1.00;;;;;;;;;;5114343;28;20269;-60
2020/12/28 04:54:02;;;;;;;1.20;1.10;;;;;;;;;;5114884;28;20208;-59
2020/12/28 04:56:29;;;;;;;1.10;0.90;;;;;;;;;;5112960;28;20196;-60
2020/12/28 04:58:56;;;;;;;1.60;1.20;;;;;;;;;;5111901;28;20203;-59
2020/12/28 05:01:23;;;;;;;1.30;1.20;;;;;;;;;;5110881;28;20277;-60
2020/12/28 05:03:50;;;;;;;1.17;1.08;;;;;;;;;;5110449;28;20207;-60
2020/12/28 05:06:17;;;;;;;1.10;1.00;;;;;;;;;;5110556;28;20306;-59
2020/12/28 05:08:44;;;;;;;1.35;1.25;;;;;;;;;;5110697;28;20199;-60
2020/12/28 05:11:13;;;;;;;1.70;1.60;;;;;;;;;;5110787;28;20311;-60
2020/12/28 05:13:40;;;;;;;1.50;1.40;;;;;;;;;;5110754;28;20248;-60
2020/12/28 05:16:07;;;;;;;0.80;0.80;;;;;;;;;;5110713;28;20196;-61
2020/12/28 05:18:35;;;;;;;1.10;1.00;;;;;;;;;;5098997;28;20204;-60
2020/12/28 05:21:02;;;;;;;1.67;1.55;;;;;;;;;;5097298;28;20711;-60
2020/12/28 05:23:28;;;;;;;1.45;1.35;;;;;;;;;;5098247;28;20200;-59
2020/12/28 05:25:55;;;;;;;1.60;1.50;;;;;;;;;;5099364;28;20216;-59
2020/12/28 05:28:22;;;;;;;1.50;1.40;;;;;;;;;;5097455;28;20668;-60
2020/12/28 05:30:50;;;;;;;1.60;1.50;;;;;;;;;;5097407;28;20204;-60
2020/12/28 05:33:18;;;;;;;1.70;1.60;;;;;;;;;;5097315;28;20249;-60
2020/12/28 05:35:45;;;;;;;1.55;1.45;;;;;;;;;;5096712;28;20203;-59
2020/12/28 05:38:13;;;;;;;2.30;1.63;;;;;;;;;;5096793;28;20200;-60
2020/12/28 05:40:40;;;;;;;1.30;1.20;;;;;;;;;;5096529;28;20672;-60
2020/12/28 05:43:07;;;;;;;2.88;1.75;;;;;;;;;;5096927;28;20249;-60
2020/12/28 05:45:34;;;;;;;1.40;1.30;;;;;;;;;;5096498;28;20223;-59
2020/12/28 05:48:02;;;;;;;2.10;1.90;;;;;;;;;;5104464;28;20204;-60
2020/12/28 05:50:30;;;;;;;2.10;1.90;;;;;;;;;;5102652;28;20196;-60
2020/12/28 05:52:58;;;;;;;2.35;2.15;;;;;;;;;;5102888;28;20196;-60
2020/12/28 05:55:25;;;;;;;2.25;2.05;;;;;;;;;;5103987;28;20204;-60
2020/12/28 05:57:52;;;;;;;2.30;2.10;;;;;;;;;;5103985;28;20204;-59
2020/12/28 06:00:19;;;;;;;3.65;2.83;;;;;;;;;;5103878;28;20204;-60
2020/12/28 06:02:46;;;;;;;2.42;2.22;;;;;;;;;;5102656;28;20220;-61
2020/12/28 06:05:14;;;;;;;2.03;1.92;;;;;;;;;;5098608;28;20204;-60
2020/12/28 06:07:42;;;;;;;2.60;2.40;;;;;;;;;;5099421;28;20266;-60
2020/12/28 06:10:09;;;;;;;2.63;2.40;;;;;;;;;;5100163;28;20200;-60
2020/12/28 06:12:36;;;;;;;3.80;2.30;;;;;;;;;;5099568;28;20220;-60
2020/12/28 06:15:03;;;;;;;2.40;2.20;;;;;;;;;;5098319;28;20211;-60
2020/12/28 06:17:33;;;;;;;3.25;2.45;;;;;;;;;;5099484;28;20197;-59
2020/12/28 06:20:01;;;;;;;2.00;1.80;;;;;;;;;;5098191;28;20240;-60
2020/12/28 06:22:28;;;;;;;2.50;2.30;;;;;;;;;;5096420;28;20228;-58
2020/12/28 06:25:00;;;;;;;1.80;1.70;;;;;;;;;;5096469;28;20243;-60
2020/12/28 06:27:31;;;;;;;2.10;1.90;;;;;;;;;;5096477;28;20216;-59
2020/12/28 06:30:07;;;;;;;2.15;2.05;;;;;;;;;;5095218;28;20598;-59
2020/12/28 06:32:34;;;;;;;1.75;1.50;;;;;;;;;;5096311;28;20318;-59
2020/12/28 06:35:02;;;;;;;2.30;1.60;;;;;;;;;;5096636;28;20196;-59
2020/12/28 06:37:28;;;;;;;3.08;1.67;;;;;;;;;;5095804;28;20193;-59
2020/12/28 06:39:59;;;;;;;1.70;1.58;;;;;;;;;;5096154;28;20207;-59
2020/12/28 06:42:26;;;;;;;1.90;1.50;;;;;;;;;;5095469;28;20734;-60
2020/12/28 06:44:53;;;;;;;1.58;1.45;;;;;;;;;;5096008;28;20215;-60
2020/12/28 06:47:20;;;;;;;1.60;1.50;;;;;;;;;;5096283;28;20231;-60
2020/12/28 06:49:47;;;;;;;1.95;1.73;;;;;;;;;;5096310;28;20207;-60
2020/12/28 06:52:14;;;;;;;2.05;1.85;;;;;;;;;;5096335;28;20769;-59
2020/12/28 06:54:41;;;;;;;1.60;1.50;;;;;;;;;;5097171;28;20200;-59
2020/12/28 06:57:09;;;;;;;1.85;1.75;;;;;;;;;;5095527;28;20200;-60
2020/12/28 06:59:36;;;;;;;1.60;1.48;;;;;;;;;;5095750;28;20207;-59
2020/12/28 07:02:03;;;;;;;1.85;1.70;;;;;;;;;;5096182;28;20224;-58
2020/12/28 07:04:33;;;;;;;1.63;1.42;;;;;;;;;;5095722;28;20222;-59
2020/12/28 07:07:01;;;;;;;1.90;1.60;;;;;;;;;;5101136;28;20311;-59
2020/12/28 07:09:28;;;;;;;2.00;1.50;;;;;;;;;;5100738;28;20230;-58
2020/12/28 07:11:54;;;;;;;2.45;1.63;;;;;;;;;;5101240;28;20225;-59
2020/12/28 07:14:22;;;;;;;1.90;1.58;;;;;;;;;;5100278;28;20230;-59
2020/12/28 07:16:55;;;;;;;1.73;1.48;;;;;;;;;;5102654;28;20197;-58
2020/12/28 07:19:22;;;;;;;1.95;1.58;;;;;;;;;;5107439;28;20234;-60
2020/12/28 07:21:48;;;;;;;1.35;1.25;;;;;;;;;;5102816;28;20220;-59
2020/12/28 07:24:15;;;;;;;1.63;1.52;;;;;;;;;;5102943;28;20204;-59
2020/12/28 07:26:43;;;;;;;2.20;2.00;;;;;;;;;;5100330;28;20217;-59
2020/12/28 07:29:13;;;;;;;2.42;1.60;;;;;;;;;;5099844;28;20257;-60
2020/12/28 07:31:40;;;;;;;2.25;2.05;;;;;;;;;;5097578;28;20216;-60
2020/12/28 07:34:07;;;;;;;1.85;1.75;;;;;;;;;;5097964;28;20274;-60
2020/12/28 07:36:35;;;;;;;2.30;2.10;;;;;;;;;;5099752;28;20797;-61
2020/12/28 07:39:02;;;;;;;1.70;1.60;;;;;;;;;;5101089;28;20201;-59
2020/12/28 07:41:29;;;;;;;2.15;1.90;;;;;;;;;;5099994;28;20227;-59
2020/12/28 07:43:56;;;;;;;1.85;1.65;;;;;;;;;;5101013;28;20200;-58
2020/12/28 07:46:39;;;;;;;1.60;1.50;;;;;;;;;;5100103;28;20231;-59
2020/12/28 07:49:12;;;;;;;2.17;1.98;;;;;;;;;;5097904;28;20210;-61
2020/12/28 07:51:40;;;;;;;2.13;1.80;;;;;;;;;;5098747;28;20221;-60
2020/12/28 07:54:12;;;;;;;2.65;1.58;;;;;;;;;;5098164;28;20201;-60
2020/12/28 07:56:44;;;;;;;2.00;1.90;;;;;;;;;;5100639;28;20191;-60
2020/12/28 07:59:20;;;;;;;2.08;1.88;;;;;;;;;;5101362;28;20203;-60
2020/12/28 08:01:48;;;;;;;2.40;1.80;;;;;;;;;;5095781;28;20223;-60
2020/12/28 08:04:18;;;;;;;2.22;2.03;;;;;;;;;;5095013;28;20234;-60
2020/12/28 08:06:46;;;;;;;2.63;2.15;;;;;;;;;;5094966;28;20220;-61
2020/12/28 08:09:13;;;;;;;2.20;2.00;;;;;;;;;;5095167;28;20570;-60
2020/12/28 08:11:40;;;;;;;2.28;1.92;;;;;;;;;;5094608;28;20598;-60
2020/12/28 08:14:10;;;;;;;2.17;1.98;;;;;;;;;;5095065;28;20559;-60
2020/12/28 08:16:37;;;;;;;2.10;1.90;;;;;;;;;;5094970;28;20196;-60
2020/12/28 08:19:04;;;;;;;2.08;1.95;;;;;;;;;;5095100;28;20207;-59
2020/12/28 08:21:41;;;;;;;3.05;2.45;;;;;;;;;;5094429;28;20217;-59
2020/12/28 08:24:16;;;;;;;2.22;2.03;;;;;;;;;;5094592;28;20192;-59
2020/12/28 08:26:44;;;;;;;2.60;2.35;;;;;;;;;;5094599;28;20225;-59
2020/12/28 08:29:11;;;;;;;2.67;2.03;;;;;;;;;;5095539;28;20242;-60
2020/12/28 08:31:38;;;;;;;2.22;2.03;;;;;;;;;;5099893;28;20220;-60
2020/12/28 08:34:05;;;;;;;2.30;2.10;;;;;;;;;;5100472;28;20204;-60
2020/12/28 08:36:32;;;;;;;1.98;1.77;;;;;;;;;;5100320;28;20196;-60
2020/12/28 08:39:10;;;;;;;1.85;1.75;;;;;;;;;;5094070;28;20200;-59
2020/12/28 08:41:37;;;;;;;2.10;1.95;;;;;;;;;;5093964;28;20285;-60
2020/12/28 08:44:04;;;;;;;3.90;1.98;;;;;;;;;;5095804;28;20208;-59
2020/12/28 08:46:30;;;;;;;2.30;2.10;;;;;;;;;;5096615;28;20261;-60
2020/12/28 08:48:57;;;;;;;2.53;2.33;;;;;;;;;;5096753;28;20200;-61
2020/12/28 08:51:24;;;;;;;2.78;2.35;;;;;;;;;;5096098;28;20628;-59
2020/12/28 08:53:51;;;;;;;2.05;1.85;;;;;;;;;;5098496;28;20204;-59
2020/12/28 08:56:19;;;;;;;3.33;2.50;;;;;;;;;;5098893;28;20250;-59
2020/12/28 08:58:46;;;;;;;2.50;2.30;;;;;;;;;;5099024;28;20196;-60
2020/12/28 09:01:13;;;;;;;3.50;2.10;;;;;;;;;;5099039;28;20224;-60
2020/12/28 09:03:41;;;;;;;2.55;2.35;;;;;;;;;;5098172;28;20196;-60
2020/12/28 09:06:08;;;;;;;2.47;2.28;;;;;;;;;;5098132;28;20227;-59
2020/12/28 09:08:34;;;;;;;3.10;2.00;;;;;;;;;;5096657;28;20576;-60
2020/12/28 09:11:01;;;;;;;2.85;1.95;;;;;;;;;;5096947;28;20220;-60
2020/12/28 09:13:29;;;;;;;2.85;2.00;;;;;;;;;;5097367;28;20245;-60
2020/12/28 09:15:56;;;;;;;1.90;1.80;;;;;;;;;;5097245;28;20203;-60
2020/12/28 09:18:22;;;;;;;1.60;1.50;;;;;;;;;;5097257;28;20208;-60
2020/12/28 09:20:49;;;;;;;2.25;2.05;;;;;;;;;;5097278;28;20200;-60
2020/12/28 09:23:16;;;;;;;2.33;1.95;;;;;;;;;;5096854;28;20204;-61
2020/12/28 09:25:43;;;;;;;3.33;1.65;;;;;;;;;;5096587;28;20204;-60
2020/12/28 09:28:09;;;;;;;2.20;2.00;;;;;;;;;;5096227;28;20687;-61
2020/12/28 09:30:37;;;;;;;5.50;2.10;;;;;;;;;;5096657;28;20299;-61
2020/12/28 09:33:04;;;;;;;2.78;2.58;;;;;;;;;;5096001;28;20222;-60
2020/12/28 09:35:31;;;;;;;4.78;3.60;;;;;;;;;;5096274;28;20200;-60
2020/12/28 09:37:57;;;;;;;2.33;2.13;;;;;;;;;;5096522;28;20193;-63
2020/12/28 09:40:24;;;;;;;2.60;2.40;;;;;;;;;;5097547;28;20215;-62
2020/12/28 09:42:51;;;;;;;2.92;2.40;;;;;;;;;;5096664;28;20273;-63
2020/12/28 09:45:37;;;;;;;2.15;1.95;;;;;;;;;;5097945;28;20257;-62
2020/12/28 09:48:04;;;;;;;3.15;2.22;;;;;;;;;;5097537;28;20196;-62
2020/12/28 09:50:31;;;;;;;1.70;1.58;;;;;;;;;;5100129;28;20283;-61
2020/12/28 09:52:58;;;;;;;2.53;2.08;;;;;;;;;;5107649;28;20200;-61
2020/12/28 09:55:25;;;;;;;2.60;2.10;;;;;;;;;;5109185;28;20203;-61
2020/12/28 09:57:52;;;;;;;4.28;2.03;;;;;;;;;;5101280;28;20208;-60
2020/12/28 10:00:19;;;;;;;2.72;2.17;;;;;;;;;;5097090;28;20287;-61
2020/12/28 10:02:46;;;;;;;2.08;1.88;;;;;;;;;;5095969;28;20308;-62
2020/12/28 10:05:14;;;;;;;2.13;1.92;;;;;;;;;;5095819;28;20245;-61
2020/12/28 10:07:40;;;;;;;2.70;2.20;;;;;;;;;;5095970;28;20224;-60
2020/12/28 10:10:08;;;;;;;2.10;1.90;;;;;;;;;;5096986;28;20200;-61
2020/12/28 10:12:36;;;;;;;2.67;2.20;;;;;;;;;;5095662;28;20220;-61
2020/12/28 10:15:03;;;;;;;1.83;1.70;;;;;;;;;;5096020;28;20277;-61
2020/12/28 10:17:30;;;;;;;2.90;2.40;;;;;;;;;;5095310;28;20571;-61
2020/12/28 10:19:57;;;;;;;3.28;2.42;;;;;;;;;;5094922;28;20204;-60
2020/12/28 10:22:26;;;;;;;3.05;2.10;;;;;;;;;;5094940;28;20227;-61
2020/12/28 10:24:53;;;;;;;2.17;1.83;;;;;;;;;;5095260;28;20208;-60
2020/12/28 10:27:20;;;;;;;2.30;2.05;;;;;;;;;;5097135;28;20219;-59
2020/12/28 10:29:47;;;;;;;4.20;2.42;;;;;;;;;;5102180;28;20207;-60
2020/12/28 10:32:14;;;;;;;3.20;2.90;;;;;;;;;;5102751;28;20231;-60
2020/12/28 10:34:40;;;;;;;2.60;2.10;;;;;;;;;;5102375;28;20204;-61
2020/12/28 10:37:07;;;;;;;2.45;2.25;;;;;;;;;;5102184;28;20192;-60
2020/12/28 10:39:35;;;;;;;2.70;2.45;;;;;;;;;;5101611;28;20200;-60
2020/12/28 10:42:05;;;;;;;1.50;1.40;;;;;;;;;;5101180;28;20220;-60
2020/12/28 10:44:32;;;;;;;2.53;2.33;;;;;;;;;;5099705;28;20253;-61
2020/12/28 10:46:58;;;;;;;2.65;2.10;;;;;;;;;;5103603;28;20212;-60
2020/12/28 10:49:25;;;;;;;2.38;2.13;;;;;;;;;;5105413;28;20265;-61
2020/12/28 10:51:52;;;;;;;1.75;1.65;;;;;;;;;;5102567;28;20254;-60
2020/12/28 10:54:19;;;;;;;1.60;1.45;;;;;;;;;;5099029;28;20207;-60
2020/12/28 10:56:46;;;;;;;1.77;1.60;;;;;;;;;;5102329;28;20207;-60
2020/12/28 10:59:13;;;;;;;2.63;2.00;;;;;;;;;;5105314;28;20316;-61
2020/12/28 11:01:40;;;;;;;2.35;2.15;;;;;;;;;;5101205;28;20224;-60
2020/12/28 11:04:07;;;;;;;1.70;1.50;;;;;;;;;;5101209;28;20200;-60
2020/12/28 11:06:33;;;;;;;1.67;1.50;;;;;;;;;;5102337;28;20700;-60
2020/12/28 11:09:00;;;;;;;2.10;1.90;;;;;;;;;;5102427;28;20196;-61
2020/12/28 11:11:27;;;;;;;2.70;1.60;;;;;;;;;;5101224;28;20220;-61
2020/12/28 11:13:54;;;;;;;2.28;1.90;;;;;;;;;;5102558;28;20204;-61
2020/12/28 11:16:27;;;;;;;1.63;1.40;;;;;;;;;;5101837;28;20200;-61
2020/12/28 11:18:54;;;;;;;1.60;1.40;;;;;;;;;;5101005;28;20300;-60
2020/12/28 11:21:21;;;;;;;4.03;1.77;;;;;;;;;;5101402;28;20265;-61
2020/12/28 11:24:01;;;;;;;1.90;1.73;;;;;;;;;;5100617;28;20200;-61
2020/12/28 11:26:28;;;;;;;2.15;1.83;;;;;;;;;;5099743;28;20207;-60
2020/12/28 11:28:55;;;;;;;1.80;1.70;;;;;;;;;;5097996;28;20248;-61
2020/12/28 11:31:22;;;;;;;2.13;1.80;;;;;;;;;;5098874;28;20223;-61
2020/12/28 11:33:49;;;;;;;2.55;2.00;;;;;;;;;;5097852;28;20611;-60
2020/12/28 11:36:16;;;;;;;2.47;2.10;;;;;;;;;;5095246;28;20239;-61
2020/12/28 11:38:43;;;;;;;2.00;1.80;;;;;;;;;;5094915;28;20202;-59
2020/12/28 11:41:10;;;;;;;1.63;1.52;;;;;;;;;;5094291;28;20220;-60
2020/12/28 11:43:37;;;;;;;2.67;1.90;;;;;;;;;;5094422;28;20565;-60
2020/12/28 11:46:06;;;;;;;2.22;2.03;;;;;;;;;;5095400;28;20200;-59
2020/12/28 11:48:33;;;;;;;1.60;1.40;;;;;;;;;;5095243;28;20563;-60
2020/12/28 11:51:00;;;;;;;1.65;1.45;;;;;;;;;;5094187;28;20231;-59
2020/12/28 11:53:27;;;;;;;2.75;1.60;;;;;;;;;;5094531;28;20200;-60
2020/12/28 11:56:03;;;;;;;1.73;1.63;;;;;;;;;;5096678;28;20207;-61
2020/12/28 11:58:31;;;;;;;1.92;1.77;;;;;;;;;;5099938;28;20282;-59
2020/12/28 12:00:57;;;;;;;3.03;1.70;;;;;;;;;;5100407;28;20266;-59
2020/12/28 12:03:28;;;;;;;1.40;1.27;;;;;;;;;;5098171;28;20196;-59
2020/12/28 12:05:54;;;;;;;2.35;1.42;;;;;;;;;;5097916;28;20204;-59
2020/12/28 12:08:21;;;;;;;1.50;1.40;;;;;;;;;;5096838;28;20193;-60
2020/12/28 12:10:48;;;;;;;1.58;1.48;;;;;;;;;;5095388;28;20207;-59
2020/12/28 12:13:15;;;;;;;2.10;1.88;;;;;;;;;;5103753;28;20200;-59
2020/12/28 12:15:45;;;;;;;2.13;2.03;;;;;;;;;;5103927;28;20211;-60
2020/12/28 12:18:12;;;;;;;3.05;2.67;;;;;;;;;;5099936;28;20192;-60
2020/12/28 12:20:40;;;;;;;2.47;1.55;;;;;;;;;;5098399;28;20204;-59
2020/12/28 12:23:07;;;;;;;1.70;1.52;;;;;;;;;;5094315;28;20207;-60
2020/12/28 12:25:34;;;;;;;2.65;1.63;;;;;;;;;;5093438;28;20261;-60
2020/12/28 12:28:00;;;;;;;2.47;1.98;;;;;;;;;;5094931;28;20216;-60
2020/12/28 12:30:27;;;;;;;2.10;1.75;;;;;;;;;;5097543;28;20737;-60
2020/12/28 12:32:54;;;;;;;2.20;1.63;;;;;;;;;;5098108;28;20270;-61
2020/12/28 12:35:21;;;;;;;2.28;2.08;;;;;;;;;;5098061;28;20200;-60
2020/12/28 12:37:48;;;;;;;2.90;2.20;;;;;;;;;;5097678;28;20196;-60
2020/12/28 12:40:15;;;;;;;2.03;1.65;;;;;;;;;;5096922;28;20226;-60
2020/12/28 12:42:42;;;;;;;2.38;2.17;;;;;;;;;;5097184;28;20227;-59
2020/12/28 12:45:09;;;;;;;3.65;2.75;;;;;;;;;;5097502;28;20197;-59
2020/12/28 12:47:36;;;;;;;1.92;1.73;;;;;;;;;;5097129;28;20589;-60
2020/12/28 12:50:04;;;;;;;3.72;1.42;;;;;;;;;;5097221;28;20241;-59
2020/12/28 12:52:31;;;;;;;1.75;1.40;;;;;;;;;;5097357;28;20296;-60
2020/12/28 12:54:58;;;;;;;1.70;1.60;;;;;;;;;;5097700;28;20207;-60
2020/12/28 12:57:29;;;;;;;2.90;2.10;;;;;;;;;;5097498;28;20197;-59
2020/12/28 13:00:03;;;;;;;3.70;2.03;;;;;;;;;;5097408;28;20655;-59
2020/12/28 13:02:30;;;;;;;4.38;2.22;;;;;;;;;;5097501;28;20228;-60
2020/12/28 13:05:00;;;;;;;1.98;1.40;;;;;;;;;;5097239;28;20227;-59
2020/12/28 13:07:27;;;;;;;1.63;1.30;;;;;;;;;;5097511;28;20318;-60
2020/12/28 13:09:54;;;;;;;2.40;1.23;;;;;;;;;;5097187;28;20227;-60
2020/12/28 13:12:21;;;;;;;2.00;1.70;;;;;;;;;;5097097;28;20220;-60
2020/12/28 13:14:48;;;;;;;2.10;1.30;;;;;;;;;;5097534;28;20197;-59
2020/12/28 13:17:15;;;;;;;2.10;1.77;;;;;;;;;;5098660;28;20197;-60
2020/12/28 13:19:42;;;;;;;2.53;1.77;;;;;;;;;;5099364;28;20208;-59
2020/12/28 13:22:11;;;;;;;4.57;1.70;;;;;;;;;;5101596;28;20224;-59
2020/12/28 13:24:38;;;;;;;2.10;1.58;;;;;;;;;;5102572;28;20206;-59
2020/12/28 13:27:05;;;;;;;3.55;2.45;;;;;;;;;;5103556;28;20223;-60
2020/12/28 13:29:33;;;;;;;3.75;2.63;;;;;;;;;;5098829;28;20283;-60
2020/12/28 13:31:59;;;;;;;2.50;2.30;;;;;;;;;;5101091;28;20223;-60
2020/12/28 13:34:26;;;;;;;4.47;2.33;;;;;;;;;;5102115;28;20302;-59
2020/12/28 13:36:53;;;;;;;2.63;2.10;;;;;;;;;;5099216;28;20196;-61
2020/12/28 13:39:20;;;;;;;2.17;1.90;;;;;;;;;;5098024;28;20212;-60
2020/12/28 13:41:47;;;;;;;1.90;1.70;;;;;;;;;;5099402;28;20228;-59
2020/12/28 13:44:13;;;;;;;4.25;3.70;;;;;;;;;;5098812;28;20200;-60
2020/12/28 13:46:43;;;;;;;1.80;1.63;;;;;;;;;;5098375;28;20216;-60
2020/12/28 13:49:10;;;;;;;4.43;3.95;;;;;;;;;;5098134;28;20203;-59
2020/12/28 13:51:37;;;;;;;7.68;5.13;;;;;;;;;;5097604;28;20221;-60
2020/12/28 13:54:04;;;;;;;2.60;2.20;;;;;;;;;;5097862;28;20208;-60
2020/12/28 13:56:31;;;;;;;4.43;4.03;;;;;;;;;;5098022;28;20196;-59
2020/12/28 13:58:58;;;;;;;3.33;2.50;;;;;;;;;;5098369;28;20556;-60
2020/12/28 14:01:25;;;;;;;3.17;2.70;;;;;;;;;;5099000;28;20220;-60
2020/12/28 14:03:52;;;;;;;17.92;2.65;;;;;;;;;;5098574;28;20197;-60
2020/12/28 14:06:19;;;;;;;2.65;2.10;;;;;;;;;;5096959;28;20224;-59
2020/12/28 14:08:47;;;;;;;2.10;1.58;;;;;;;;;;5096949;28;20199;-60
2020/12/28 14:11:14;;;;;;;2.30;1.60;;;;;;;;;;5096407;28;20246;-58
2020/12/28 14:13:42;;;;;;;1.38;1.17;;;;;;;;;;5096685;28;20205;-60
2020/12/28 14:16:09;;;;;;;2.20;1.70;;;;;;;;;;5096342;28;20634;-60
2020/12/28 14:18:36;;;;;;;2.42;1.80;;;;;;;;;;5095477;28;20235;-60
2020/12/28 14:21:04;;;;;;;2.05;1.83;;;;;;;;;;5095496;28;20224;-60
2020/12/28 14:23:31;;;;;;;2.00;1.80;;;;;;;;;;5095697;28;20592;-59
2020/12/28 14:25:58;;;;;;;2.28;1.95;;;;;;;;;;5095450;28;20246;-59
2020/12/28 14:28:25;;;;;;;3.30;2.08;;;;;;;;;;5095326;28;20282;-59
2020/12/28 14:30:52;;;;;;;2.05;1.77;;;;;;;;;;5095358;28;20289;-60
2020/12/28 14:33:19;;;;;;;1.88;1.70;;;;;;;;;;5095563;28;20201;-60
2020/12/28 14:35:46;;;;;;;2.50;2.10;;;;;;;;;;5095503;28;20612;-60
2020/12/28 14:38:14;;;;;;;2.22;2.03;;;;;;;;;;5095316;28;20253;-60
2020/12/28 14:40:41;;;;;;;2.20;1.98;;;;;;;;;;5095144;28;20212;-59
2020/12/28 14:43:08;;;;;;;4.60;2.00;;;;;;;;;;5095624;28;20197;-60
2020/12/28 14:45:35;;;;;;;2.17;1.85;;;;;;;;;;5095541;28;20227;-59